createdAt,value
2023-04-17T06:41:09.016Z,9.1
2023-04-17T06:46:42.233Z,8.8
2023-04-17T06:52:19.679Z,9
2023-04-17T06:57:54.847Z,8.9
2023-04-17T07:03:44.058Z,9.3
2023-04-17T07:09:25.527Z,9.6
2023-04-17T07:15:10.131Z,10
2023-04-17T07:21:45.811Z,10.3
2023-04-17T07:27:26.260Z,10.6
2023-04-17T07:33:02.142Z,10.8
2023-04-17T07:39:01.596Z,11
2023-04-17T07:44:34.958Z,11.2
2023-04-17T07:50:10.347Z,11.6
2023-04-17T07:55:45.954Z,11.9
2023-04-17T08:01:21.431Z,12
2023-04-17T08:06:58.483Z,12.3
2023-04-17T08:12:36.237Z,12.3
2023-04-17T08:18:12.775Z,12.6
2023-04-17T08:23:56.629Z,12.6
2023-04-17T08:29:41.473Z,12.9
2023-04-17T08:35:19.665Z,13
2023-04-17T08:41:19.835Z,13.3
2023-04-17T08:46:53.230Z,13.4
2023-04-17T08:52:28.963Z,13.5
2023-04-17T08:58:28.559Z,13.7
2023-04-17T09:04:04.606Z,13.8
2023-04-17T09:09:43.008Z,14.1
2023-04-17T09:15:22.452Z,14.4
2023-04-17T09:20:58.344Z,14.4
2023-04-17T09:26:33.523Z,14.5
2023-04-17T09:32:17.368Z,14.4
2023-04-17T09:38:15.780Z,14.6
2023-04-17T09:43:48.733Z,15
2023-04-17T09:49:25.521Z,15.1
2023-04-17T09:55:07.286Z,15.3
2023-04-17T10:00:42.573Z,15
2023-04-17T10:06:27.230Z,15.4
2023-04-17T10:12:11.413Z,15.8
2023-04-17T10:17:48.564Z,15.4
2023-04-17T10:23:24.936Z,15.5
2023-04-17T10:29:04.511Z,15.7
2023-04-17T10:34:41.862Z,16.2
2023-04-17T10:40:19.636Z,16.4
2023-04-17T10:45:56.541Z,16
2023-04-17T10:51:33.565Z,16.6
2023-04-17T10:57:11.215Z,16.8
2023-04-17T11:02:47.399Z,17.1
2023-04-17T11:08:36.518Z,16.7
2023-04-17T11:14:14.320Z,17.3
2023-04-17T11:19:59.260Z,17.3
2023-04-17T11:26:09.663Z,17.6
2023-04-17T11:31:50.435Z,17.7
2023-04-17T11:37:27.420Z,17.6
2023-04-17T11:43:03.941Z,18
2023-04-17T11:48:42.598Z,17.9
2023-04-17T11:54:22.412Z,17.7
2023-04-17T12:00:00.236Z,17.8
2023-04-17T12:05:35.733Z,17.9
2023-04-17T12:11:12.489Z,18.4
2023-04-17T12:16:47.568Z,18.6
2023-04-17T12:22:23.473Z,19.2
2023-04-17T12:28:18.428Z,18.8
2023-04-17T12:34:03.457Z,19.3
2023-04-17T12:39:39.048Z,20
2023-04-17T12:45:27.266Z,19.8
2023-04-17T12:51:14.015Z,19.5
2023-04-17T12:56:49.214Z,20.8
2023-04-17T13:02:25.241Z,21
2023-04-17T13:08:02.979Z,22.5
2023-04-17T13:13:39.363Z,23.4
2023-04-17T13:19:18.497Z,24
2023-04-17T13:24:57.474Z,28.7
2023-04-17T13:30:33.690Z,36.4
2023-04-17T13:36:29.248Z,39.4
2023-04-17T13:42:07.586Z,40.6
2023-04-17T13:47:47.041Z,38.2
2023-04-17T13:53:38.461Z,40.5
2023-04-17T13:59:25.851Z,41
2023-04-17T14:05:10.840Z,41.1
2023-04-17T14:10:53.311Z,39.5
2023-04-17T14:16:28.711Z,41.1
2023-04-17T14:22:14.699Z,42.4
2023-04-17T14:27:50.421Z,43.4
2023-04-17T14:33:26.757Z,44.3
2023-04-17T14:39:01.858Z,42.4
2023-04-17T14:44:37.610Z,36.6
2023-04-17T14:50:17.965Z,42.1
2023-04-17T14:55:55.871Z,36
2023-04-17T15:01:32.487Z,40.8
2023-04-17T15:07:08.962Z,38
2023-04-17T15:12:45.361Z,39.4
2023-04-17T15:19:01.089Z,40.2
2023-04-17T15:24:40.752Z,36.1
2023-04-17T15:30:18.810Z,34.1
2023-04-17T15:35:54.812Z,28.8
2023-04-17T15:41:30.046Z,26
2023-04-17T15:47:04.495Z,25
2023-04-17T15:52:40.349Z,24.4
2023-04-17T15:58:19.197Z,23.1
2023-04-17T16:04:01.219Z,24.2
2023-04-17T16:09:39.205Z,25.3
2023-04-17T16:15:15.306Z,24.9
2023-04-17T16:20:52.920Z,25.3
2023-04-17T16:26:49.198Z,22.2
2023-04-17T16:32:34.446Z,23.7
2023-04-17T16:39:01.432Z,26.6
2023-04-17T16:44:35.211Z,31.4
2023-04-17T16:50:31.186Z,27.9
2023-04-17T16:56:06.605Z,26.7
2023-04-17T17:01:43.426Z,25.8
2023-04-17T17:07:28.094Z,23.5
2023-04-17T17:13:04.904Z,20.4
2023-04-17T17:18:40.626Z,19.6
2023-04-17T17:24:15.647Z,18.9
2023-04-17T17:29:51.427Z,18.8
2023-04-17T17:35:26.871Z,18.1
2023-04-17T17:41:13.285Z,18.2
2023-04-17T17:46:53.074Z,18
2023-04-17T17:52:32.638Z,18
2023-04-17T17:58:19.092Z,17.6
2023-04-17T18:03:55.361Z,17.3
2023-04-17T18:09:48.925Z,17
2023-04-17T18:15:26.935Z,16.9
2023-04-17T18:21:03.725Z,16.6
2023-04-17T18:26:40.591Z,16.4
2023-04-17T18:32:17.599Z,16.3
2023-04-17T18:38:14.661Z,16.1
2023-04-17T18:43:48.406Z,15.9
2023-04-17T18:49:26.540Z,15.7
2023-04-17T18:55:01.452Z,15.3
2023-04-17T19:00:37.190Z,15.3
2023-04-17T19:06:13.805Z,15.1
2023-04-17T19:11:51.612Z,15.1
2023-04-17T19:17:47.015Z,14.9
2023-04-17T19:23:45.277Z,14.8
2023-04-17T19:29:48.215Z,14.7
2023-04-17T19:35:43.682Z,14.5
2023-04-17T19:41:19.411Z,14.5
2023-04-17T19:46:55.413Z,14.4
2023-04-17T19:52:50.445Z,14.3
2023-04-17T19:58:27.161Z,14.3
2023-04-17T20:04:02.636Z,14.2
2023-04-17T20:09:39.923Z,14.1
2023-04-17T20:15:16.680Z,14.1
2023-04-17T20:20:54.933Z,13.7
2023-04-17T20:26:30.574Z,13.8
2023-04-17T20:32:06.564Z,13.8
2023-04-17T20:37:42.775Z,13.3
2023-04-17T20:43:19.078Z,13.1
2023-04-17T20:49:00.601Z,12.8
2023-04-17T20:54:39.877Z,12.6
2023-04-17T21:00:19.303Z,12.5
2023-04-17T21:06:16.692Z,12.4
